sensor_id;sensor_type;location;lat;lon;timestamp;P1;durP1;ratioP1;P2;durP2;ratioP2
30617;SDS011;17384;51.214;9.202;2023-04-05T00:01:21;8.85;;;4.22;;
30617;SDS011;17384;51.214;9.202;2023-04-05T00:03:50;6.95;;;3.88;;
30617;SDS011;17384;51.214;9.202;2023-04-05T00:06:19;9.38;;;4.22;;
30617;SDS011;17384;51.214;9.202;2023-04-05T00:09:24;9.48;;;4.05;;
30617;SDS011;17384;51.214;9.202;2023-04-05T00:11:44;8.07;;;3.80;;
30617;SDS011;17384;51.214;9.202;2023-04-05T00:14:09;7.05;;;4.53;;
30617;SDS011;17384;51.214;9.202;2023-04-05T00:16:35;9.90;;;4.85;;
30617;SDS011;17384;51.214;9.202;2023-04-05T00:19:02;8.25;;;4.63;;
30617;SDS011;17384;51.214;9.202;2023-04-05T00:21:27;11.13;;;5.63;;
30617;SDS011;17384;51.214;9.202;2023-04-05T00:23:53;9.25;;;5.15;;
30617;SDS011;17384;51.214;9.202;2023-04-05T00:26:22;10.40;;;5.38;;
30617;SDS011;17384;51.214;9.202;2023-04-05T00:28:48;9.27;;;5.43;;
30617;SDS011;17384;51.214;9.202;2023-04-05T00:31:14;11.18;;;5.60;;
30617;SDS011;17384;51.214;9.202;2023-04-05T00:33:40;6.88;;;4.93;;
30617;SDS011;17384;51.214;9.202;2023-04-05T00:41:05;11.75;;;5.10;;
30617;SDS011;17384;51.214;9.202;2023-04-05T00:43:31;11.63;;;6.20;;
30617;SDS011;17384;51.214;9.202;2023-04-05T00:45:57;9.30;;;5.40;;
30617;SDS011;17384;51.214;9.202;2023-04-05T00:48:22;10.65;;;5.53;;
30617;SDS011;17384;51.214;9.202;2023-04-05T00:50:49;18.55;;;6.05;;
30617;SDS011;17384;51.214;9.202;2023-04-05T00:53:17;11.60;;;5.38;;
30617;SDS011;17384;51.214;9.202;2023-04-05T00:55:43;7.45;;;5.40;;
30617;SDS011;17384;51.214;9.202;2023-04-05T00:58:12;11.20;;;5.65;;
30617;SDS011;17384;51.214;9.202;2023-04-05T01:00:37;8.65;;;5.70;;
30617;SDS011;17384;51.214;9.202;2023-04-05T01:03:04;8.85;;;5.40;;
30617;SDS011;17384;51.214;9.202;2023-04-05T01:05:39;13.02;;;5.72;;
30617;SDS011;17384;51.214;9.202;2023-04-05T01:10:59;8.90;;;5.60;;
30617;SDS011;17384;51.214;9.202;2023-04-05T01:13:29;11.40;;;5.80;;
30617;SDS011;17384;51.214;9.202;2023-04-05T01:15:55;7.57;;;5.30;;
30617;SDS011;17384;51.214;9.202;2023-04-05T01:18:20;12.18;;;5.57;;
30617;SDS011;17384;51.214;9.202;2023-04-05T01:20:50;6.63;;;4.70;;
30617;SDS011;17384;51.214;9.202;2023-04-05T01:26:21;6.88;;;4.78;;
30617;SDS011;17384;51.214;9.202;2023-04-05T01:32:02;10.70;;;4.80;;
30617;SDS011;17384;51.214;9.202;2023-04-05T01:37:21;13.25;;;5.40;;
30617;SDS011;17384;51.214;9.202;2023-04-05T01:39:51;11.02;;;5.20;;
30617;SDS011;17384;51.214;9.202;2023-04-05T01:42:21;9.00;;;4.88;;
30617;SDS011;17384;51.214;9.202;2023-04-05T01:44:49;7.72;;;4.65;;
30617;SDS011;17384;51.214;9.202;2023-04-05T01:47:15;8.32;;;4.85;;
30617;SDS011;17384;51.214;9.202;2023-04-05T01:49:41;7.65;;;4.85;;
30617;SDS011;17384;51.214;9.202;2023-04-05T01:52:06;7.30;;;5.10;;
30617;SDS011;17384;51.214;9.202;2023-04-05T01:54:32;8.85;;;5.10;;
30617;SDS011;17384;51.214;9.202;2023-04-05T01:56:58;10.07;;;5.30;;
30617;SDS011;17384;51.214;9.202;2023-04-05T01:59:23;9.90;;;5.38;;
30617;SDS011;17384;51.214;9.202;2023-04-05T02:01:49;11.82;;;5.55;;
30617;SDS011;17384;51.214;9.202;2023-04-05T02:04:15;7.40;;;5.07;;
30617;SDS011;17384;51.214;9.202;2023-04-05T02:06:41;10.57;;;5.05;;
30617;SDS011;17384;51.214;9.202;2023-04-05T02:09:06;9.15;;;5.50;;
30617;SDS011;17384;51.214;9.202;2023-04-05T02:11:31;10.70;;;5.45;;
30617;SDS011;17384;51.214;9.202;2023-04-05T02:13:57;8.95;;;5.70;;
30617;SDS011;17384;51.214;9.202;2023-04-05T02:16:22;12.50;;;5.95;;
30617;SDS011;17384;51.214;9.202;2023-04-05T02:18:49;12.43;;;5.35;;
30617;SDS011;17384;51.214;9.202;2023-04-05T02:21:15;11.40;;;5.60;;
30617;SDS011;17384;51.214;9.202;2023-04-05T02:23:40;10.77;;;5.88;;
30617;SDS011;17384;51.214;9.202;2023-04-05T02:26:06;7.72;;;5.50;;
30617;SDS011;17384;51.214;9.202;2023-04-05T02:28:31;10.32;;;5.55;;
30617;SDS011;17384;51.214;9.202;2023-04-05T02:30:57;14.82;;;6.50;;
30617;SDS011;17384;51.214;9.202;2023-04-05T02:33:23;10.02;;;5.80;;
30617;SDS011;17384;51.214;9.202;2023-04-05T02:35:49;9.48;;;5.65;;
30617;SDS011;17384;51.214;9.202;2023-04-05T02:38:16;9.38;;;5.85;;
30617;SDS011;17384;51.214;9.202;2023-04-05T02:40:41;12.60;;;5.82;;
30617;SDS011;17384;51.214;9.202;2023-04-05T02:43:07;10.32;;;5.95;;
30617;SDS011;17384;51.214;9.202;2023-04-05T02:45:32;10.20;;;5.47;;
30617;SDS011;17384;51.214;9.202;2023-04-05T02:47:58;13.80;;;5.68;;
30617;SDS011;17384;51.214;9.202;2023-04-05T02:50:23;9.75;;;5.45;;
30617;SDS011;17384;51.214;9.202;2023-04-05T02:52:50;10.10;;;6.13;;
30617;SDS011;17384;51.214;9.202;2023-04-05T02:55:15;13.65;;;5.90;;
30617;SDS011;17384;51.214;9.202;2023-04-05T02:57:44;12.38;;;5.90;;
30617;SDS011;17384;51.214;9.202;2023-04-05T03:00:09;7.93;;;5.55;;
30617;SDS011;17384;51.214;9.202;2023-04-05T03:02:36;11.30;;;5.80;;
30617;SDS011;17384;51.214;9.202;2023-04-05T03:05:03;17.63;;;6.20;;
30617;SDS011;17384;51.214;9.202;2023-04-05T03:07:29;19.60;;;6.30;;
30617;SDS011;17384;51.214;9.202;2023-04-05T03:09:57;8.50;;;5.70;;
30617;SDS011;17384;51.214;9.202;2023-04-05T03:12:22;12.50;;;6.13;;
30617;SDS011;17384;51.214;9.202;2023-04-05T03:14:47;11.82;;;6.78;;
30617;SDS011;17384;51.214;9.202;2023-04-05T03:17:13;15.52;;;6.30;;
30617;SDS011;17384;51.214;9.202;2023-04-05T03:19:38;10.40;;;5.65;;
30617;SDS011;17384;51.214;9.202;2023-04-05T03:22:04;10.25;;;5.50;;
30617;SDS011;17384;51.214;9.202;2023-04-05T03:24:30;11.70;;;6.22;;
30617;SDS011;17384;51.214;9.202;2023-04-05T03:26:56;12.18;;;6.22;;
30617;SDS011;17384;51.214;9.202;2023-04-05T03:29:23;13.00;;;6.57;;
30617;SDS011;17384;51.214;9.202;2023-04-05T03:31:49;9.55;;;5.65;;
30617;SDS011;17384;51.214;9.202;2023-04-05T03:34:15;8.10;;;6.25;;
30617;SDS011;17384;51.214;9.202;2023-04-05T03:36:40;10.65;;;6.22;;
30617;SDS011;17384;51.214;9.202;2023-04-05T03:39:09;9.55;;;6.30;;
30617;SDS011;17384;51.214;9.202;2023-04-05T03:41:36;12.80;;;6.72;;
30617;SDS011;17384;51.214;9.202;2023-04-05T03:44:02;13.65;;;6.72;;
30617;SDS011;17384;51.214;9.202;2023-04-05T03:46:27;10.15;;;6.38;;
30617;SDS011;17384;51.214;9.202;2023-04-05T03:48:53;9.80;;;5.70;;
30617;SDS011;17384;51.214;9.202;2023-04-05T03:51:18;11.10;;;6.30;;
30617;SDS011;17384;51.214;9.202;2023-04-05T03:53:44;11.20;;;6.00;;
30617;SDS011;17384;51.214;9.202;2023-04-05T03:56:10;12.20;;;6.13;;
30617;SDS011;17384;51.214;9.202;2023-04-05T03:58:36;12.80;;;6.93;;
30617;SDS011;17384;51.214;9.202;2023-04-05T04:01:02;12.38;;;6.10;;
30617;SDS011;17384;51.214;9.202;2023-04-05T04:03:27;10.35;;;6.53;;
30617;SDS011;17384;51.214;9.202;2023-04-05T04:05:55;13.30;;;7.22;;
30617;SDS011;17384;51.214;9.202;2023-04-05T04:08:21;10.15;;;6.43;;
30617;SDS011;17384;51.214;9.202;2023-04-05T04:10:49;12.63;;;7.28;;
30617;SDS011;17384;51.214;9.202;2023-04-05T04:13:15;13.77;;;6.35;;
30617;SDS011;17384;51.214;9.202;2023-04-05T04:15:43;10.35;;;6.28;;
30617;SDS011;17384;51.214;9.202;2023-04-05T04:18:09;17.98;;;6.60;;
30617;SDS011;17384;51.214;9.202;2023-04-05T04:20:34;12.23;;;6.90;;
30617;SDS011;17384;51.214;9.202;2023-04-05T04:23:00;11.07;;;5.65;;
30617;SDS011;17384;51.214;9.202;2023-04-05T04:25:25;11.45;;;6.03;;
30617;SDS011;17384;51.214;9.202;2023-04-05T04:27:54;13.23;;;6.32;;
30617;SDS011;17384;51.214;9.202;2023-04-05T04:30:20;13.60;;;6.20;;
30617;SDS011;17384;51.214;9.202;2023-04-05T04:32:46;11.82;;;6.35;;
30617;SDS011;17384;51.214;9.202;2023-04-05T04:38:01;10.82;;;6.28;;
30617;SDS011;17384;51.214;9.202;2023-04-05T04:40:29;13.55;;;6.97;;
30617;SDS011;17384;51.214;9.202;2023-04-05T04:43:05;15.25;;;6.60;;
30617;SDS011;17384;51.214;9.202;2023-04-05T04:45:38;15.93;;;7.13;;
30617;SDS011;17384;51.214;9.202;2023-04-05T04:48:04;13.20;;;6.68;;
30617;SDS011;17384;51.214;9.202;2023-04-05T04:50:30;14.20;;;5.78;;
30617;SDS011;17384;51.214;9.202;2023-04-05T04:52:59;13.55;;;6.70;;
30617;SDS011;17384;51.214;9.202;2023-04-05T04:55:26;13.18;;;6.72;;
30617;SDS011;17384;51.214;9.202;2023-04-05T04:57:55;12.23;;;7.15;;
30617;SDS011;17384;51.214;9.202;2023-04-05T05:00:21;15.93;;;7.03;;
30617;SDS011;17384;51.214;9.202;2023-04-05T05:02:48;19.30;;;7.90;;
30617;SDS011;17384;51.214;9.202;2023-04-05T05:05:15;15.52;;;7.07;;
30617;SDS011;17384;51.214;9.202;2023-04-05T05:07:41;12.05;;;6.15;;
30617;SDS011;17384;51.214;9.202;2023-04-05T05:10:07;19.88;;;7.10;;
30617;SDS011;17384;51.214;9.202;2023-04-05T05:12:36;11.93;;;6.45;;
30617;SDS011;17384;51.214;9.202;2023-04-05T05:15:06;17.50;;;6.97;;
30617;SDS011;17384;51.214;9.202;2023-04-05T05:17:32;13.07;;;6.50;;
30617;SDS011;17384;51.214;9.202;2023-04-05T05:19:58;14.85;;;8.13;;
30617;SDS011;17384;51.214;9.202;2023-04-05T05:22:24;13.55;;;6.95;;
30617;SDS011;17384;51.214;9.202;2023-04-05T05:24:51;18.55;;;7.30;;
30617;SDS011;17384;51.214;9.202;2023-04-05T05:27:16;12.88;;;7.25;;
30617;SDS011;17384;51.214;9.202;2023-04-05T05:29:42;13.65;;;7.40;;
30617;SDS011;17384;51.214;9.202;2023-04-05T05:32:07;12.20;;;7.43;;
30617;SDS011;17384;51.214;9.202;2023-04-05T05:34:33;15.90;;;7.95;;
30617;SDS011;17384;51.214;9.202;2023-04-05T05:36:59;25.83;;;9.63;;
30617;SDS011;17384;51.214;9.202;2023-04-05T05:39:25;25.67;;;10.00;;
30617;SDS011;17384;51.214;9.202;2023-04-05T05:41:50;19.15;;;9.00;;
30617;SDS011;17384;51.214;9.202;2023-04-05T05:44:16;22.00;;;9.05;;
30617;SDS011;17384;51.214;9.202;2023-04-05T05:46:41;20.15;;;10.90;;
30617;SDS011;17384;51.214;9.202;2023-04-05T05:49:07;21.95;;;13.10;;
30617;SDS011;17384;51.214;9.202;2023-04-05T05:51:32;27.48;;;14.52;;
30617;SDS011;17384;51.214;9.202;2023-04-05T05:53:58;30.45;;;14.38;;
30617;SDS011;17384;51.214;9.202;2023-04-05T05:56:23;25.73;;;13.45;;
30617;SDS011;17384;51.214;9.202;2023-04-05T05:58:49;22.23;;;12.75;;
30617;SDS011;17384;51.214;9.202;2023-04-05T06:01:14;21.02;;;12.48;;
30617;SDS011;17384;51.214;9.202;2023-04-05T06:03:40;15.77;;;10.80;;
30617;SDS011;17384;51.214;9.202;2023-04-05T06:06:05;19.88;;;10.23;;
30617;SDS011;17384;51.214;9.202;2023-04-05T06:08:35;18.75;;;10.48;;
30617;SDS011;17384;51.214;9.202;2023-04-05T06:11:01;18.70;;;10.57;;
30617;SDS011;17384;51.214;9.202;2023-04-05T06:13:27;19.95;;;12.25;;
30617;SDS011;17384;51.214;9.202;2023-04-05T06:15:52;21.30;;;11.73;;
30617;SDS011;17384;51.214;9.202;2023-04-05T06:18:18;16.92;;;10.98;;
30617;SDS011;17384;51.214;9.202;2023-04-05T06:20:45;19.42;;;11.32;;
30617;SDS011;17384;51.214;9.202;2023-04-05T06:23:11;17.67;;;10.73;;
30617;SDS011;17384;51.214;9.202;2023-04-05T06:25:37;21.95;;;11.63;;
30617;SDS011;17384;51.214;9.202;2023-04-05T06:28:03;12.15;;;7.30;;
30617;SDS011;17384;51.214;9.202;2023-04-05T06:30:30;11.32;;;6.07;;
30617;SDS011;17384;51.214;9.202;2023-04-05T06:32:57;25.45;;;7.68;;
30617;SDS011;17384;51.214;9.202;2023-04-05T06:35:24;12.00;;;7.28;;
30617;SDS011;17384;51.214;9.202;2023-04-05T06:37:50;11.68;;;6.38;;
30617;SDS011;17384;51.214;9.202;2023-04-05T06:40:16;10.23;;;6.22;;
30617;SDS011;17384;51.214;9.202;2023-04-05T06:42:43;12.02;;;5.85;;
30617;SDS011;17384;51.214;9.202;2023-04-05T06:45:09;9.55;;;5.65;;
30617;SDS011;17384;51.214;9.202;2023-04-05T06:47:36;10.32;;;5.97;;
30617;SDS011;17384;51.214;9.202;2023-04-05T06:50:03;10.82;;;5.97;;
30617;SDS011;17384;51.214;9.202;2023-04-05T06:52:31;8.00;;;5.07;;
30617;SDS011;17384;51.214;9.202;2023-04-05T06:54:57;11.88;;;5.65;;
30617;SDS011;17384;51.214;9.202;2023-04-05T06:57:22;15.60;;;5.97;;
30617;SDS011;17384;51.214;9.202;2023-04-05T06:59:48;10.40;;;6.13;;
30617;SDS011;17384;51.214;9.202;2023-04-05T07:02:15;10.68;;;5.70;;
30617;SDS011;17384;51.214;9.202;2023-04-05T07:04:40;13.25;;;5.28;;
30617;SDS011;17384;51.214;9.202;2023-04-05T07:07:06;9.93;;;5.30;;
30617;SDS011;17384;51.214;9.202;2023-04-05T07:09:32;11.15;;;5.10;;
30617;SDS011;17384;51.214;9.202;2023-04-05T07:11:58;11.18;;;4.88;;
30617;SDS011;17384;51.214;9.202;2023-04-05T07:14:24;9.18;;;5.68;;
30617;SDS011;17384;51.214;9.202;2023-04-05T07:16:50;11.40;;;5.13;;
30617;SDS011;17384;51.214;9.202;2023-04-05T07:19:17;8.63;;;5.00;;
30617;SDS011;17384;51.214;9.202;2023-04-05T07:21:43;11.23;;;5.13;;
30617;SDS011;17384;51.214;9.202;2023-04-05T07:24:08;16.13;;;5.20;;
30617;SDS011;17384;51.214;9.202;2023-04-05T07:26:35;11.77;;;4.97;;
30617;SDS011;17384;51.214;9.202;2023-04-05T07:29:01;12.68;;;5.38;;
30617;SDS011;17384;51.214;9.202;2023-04-05T07:31:28;18.10;;;5.47;;
30617;SDS011;17384;51.214;9.202;2023-04-05T07:33:53;8.45;;;4.90;;
30617;SDS011;17384;51.214;9.202;2023-04-05T07:36:19;10.85;;;5.50;;
30617;SDS011;17384;51.214;9.202;2023-04-05T07:38:44;11.13;;;4.63;;
30617;SDS011;17384;51.214;9.202;2023-04-05T07:41:10;8.73;;;5.88;;
30617;SDS011;17384;51.214;9.202;2023-04-05T07:43:35;13.35;;;5.22;;
30617;SDS011;17384;51.214;9.202;2023-04-05T07:46:02;11.10;;;5.72;;
30617;SDS011;17384;51.214;9.202;2023-04-05T07:48:28;10.60;;;5.00;;
30617;SDS011;17384;51.214;9.202;2023-04-05T07:50:55;10.23;;;5.75;;
30617;SDS011;17384;51.214;9.202;2023-04-05T07:53:20;9.10;;;5.55;;
30617;SDS011;17384;51.214;9.202;2023-04-05T07:55:46;12.55;;;5.68;;
30617;SDS011;17384;51.214;9.202;2023-04-05T07:58:12;14.15;;;5.97;;
30617;SDS011;17384;51.214;9.202;2023-04-05T08:00:38;9.43;;;5.50;;
30617;SDS011;17384;51.214;9.202;2023-04-05T08:03:03;10.95;;;5.78;;
30617;SDS011;17384;51.214;9.202;2023-04-05T08:05:29;11.48;;;5.22;;
30617;SDS011;17384;51.214;9.202;2023-04-05T08:07:54;12.25;;;5.97;;
30617;SDS011;17384;51.214;9.202;2023-04-05T08:10:22;12.00;;;5.78;;
30617;SDS011;17384;51.214;9.202;2023-04-05T08:12:51;11.15;;;5.50;;
30617;SDS011;17384;51.214;9.202;2023-04-05T08:15:17;12.25;;;5.93;;
30617;SDS011;17384;51.214;9.202;2023-04-05T08:17:42;8.07;;;5.32;;
30617;SDS011;17384;51.214;9.202;2023-04-05T08:20:08;9.25;;;5.45;;
30617;SDS011;17384;51.214;9.202;2023-04-05T08:22:33;9.18;;;5.45;;
30617;SDS011;17384;51.214;9.202;2023-04-05T08:24:59;10.88;;;5.03;;
30617;SDS011;17384;51.214;9.202;2023-04-05T08:27:25;9.70;;;5.35;;
30617;SDS011;17384;51.214;9.202;2023-04-05T08:29:50;8.90;;;5.30;;
30617;SDS011;17384;51.214;9.202;2023-04-05T08:32:16;8.38;;;5.35;;
30617;SDS011;17384;51.214;9.202;2023-04-05T08:34:44;9.95;;;5.60;;
30617;SDS011;17384;51.214;9.202;2023-04-05T08:37:10;12.45;;;5.13;;
30617;SDS011;17384;51.214;9.202;2023-04-05T08:39:35;10.52;;;5.53;;
30617;SDS011;17384;51.214;9.202;2023-04-05T08:44:30;6.85;;;4.90;;
30617;SDS011;17384;51.214;9.202;2023-04-05T08:46:57;9.95;;;5.07;;
30617;SDS011;17384;51.214;9.202;2023-04-05T08:49:23;9.57;;;5.40;;
30617;SDS011;17384;51.214;9.202;2023-04-05T08:51:49;8.40;;;5.20;;
30617;SDS011;17384;51.214;9.202;2023-04-05T08:54:15;15.70;;;5.65;;
30617;SDS011;17384;51.214;9.202;2023-04-05T08:56:41;8.27;;;5.03;;
30617;SDS011;17384;51.214;9.202;2023-04-05T08:59:13;9.90;;;5.53;;
30617;SDS011;17384;51.214;9.202;2023-04-05T09:01:42;7.40;;;5.32;;
30617;SDS011;17384;51.214;9.202;2023-04-05T09:06:40;8.00;;;5.28;;
30617;SDS011;17384;51.214;9.202;2023-04-05T09:09:07;10.77;;;6.50;;
30617;SDS011;17384;51.214;9.202;2023-04-05T09:11:36;11.77;;;5.55;;
30617;SDS011;17384;51.214;9.202;2023-04-05T09:14:06;7.03;;;4.97;;
30617;SDS011;17384;51.214;9.202;2023-04-05T09:16:35;17.13;;;6.50;;
30617;SDS011;17384;51.214;9.202;2023-04-05T09:19:02;8.20;;;5.00;;
30617;SDS011;17384;51.214;9.202;2023-04-05T09:21:28;19.15;;;9.50;;
30617;SDS011;17384;51.214;9.202;2023-04-05T09:23:54;7.30;;;5.72;;
30617;SDS011;17384;51.214;9.202;2023-04-05T09:26:21;9.13;;;5.63;;
30617;SDS011;17384;51.214;9.202;2023-04-05T09:28:48;10.70;;;5.47;;
30617;SDS011;17384;51.214;9.202;2023-04-05T09:34:00;6.95;;;4.88;;
30617;SDS011;17384;51.214;9.202;2023-04-05T09:36:27;9.30;;;5.88;;
30617;SDS011;17384;51.214;9.202;2023-04-05T09:38:52;8.85;;;6.15;;
30617;SDS011;17384;51.214;9.202;2023-04-05T09:41:29;13.38;;;7.75;;
30617;SDS011;17384;51.214;9.202;2023-04-05T09:43:55;7.13;;;4.88;;
30617;SDS011;17384;51.214;9.202;2023-04-05T09:46:33;11.98;;;5.10;;
30617;SDS011;17384;51.214;9.202;2023-04-05T09:49:01;10.32;;;5.18;;
30617;SDS011;17384;51.214;9.202;2023-04-05T09:51:36;7.22;;;4.93;;
30617;SDS011;17384;51.214;9.202;2023-04-05T09:54:03;7.93;;;5.18;;
30617;SDS011;17384;51.214;9.202;2023-04-05T09:56:31;10.23;;;4.90;;
30617;SDS011;17384;51.214;9.202;2023-04-05T09:59:08;6.32;;;4.43;;
30617;SDS011;17384;51.214;9.202;2023-04-05T10:01:35;7.32;;;4.40;;
30617;SDS011;17384;51.214;9.202;2023-04-05T10:04:02;6.85;;;5.28;;
30617;SDS011;17384;51.214;9.202;2023-04-05T10:06:42;10.68;;;5.40;;
30617;SDS011;17384;51.214;9.202;2023-04-05T10:09:09;6.28;;;4.70;;
30617;SDS011;17384;51.214;9.202;2023-04-05T10:11:39;8.30;;;5.25;;
30617;SDS011;17384;51.214;9.202;2023-04-05T10:14:09;7.43;;;5.30;;
30617;SDS011;17384;51.214;9.202;2023-04-05T10:16:36;8.32;;;5.45;;
30617;SDS011;17384;51.214;9.202;2023-04-05T10:19:15;11.15;;;4.75;;
30617;SDS011;17384;51.214;9.202;2023-04-05T10:21:49;8.25;;;4.47;;
30617;SDS011;17384;51.214;9.202;2023-04-05T10:29:47;5.93;;;5.00;;
30617;SDS011;17384;51.214;9.202;2023-04-05T10:32:22;6.70;;;4.45;;
30617;SDS011;17384;51.214;9.202;2023-04-05T10:40:19;7.55;;;4.55;;
30617;SDS011;17384;51.214;9.202;2023-04-05T10:42:46;8.95;;;4.78;;
30617;SDS011;17384;51.214;9.202;2023-04-05T10:45:13;9.07;;;4.70;;
30617;SDS011;17384;51.214;9.202;2023-04-05T10:47:46;8.00;;;4.57;;
30617;SDS011;17384;51.214;9.202;2023-04-05T10:50:22;6.10;;;4.18;;
30617;SDS011;17384;51.214;9.202;2023-04-05T10:52:49;8.63;;;3.55;;
30617;SDS011;17384;51.214;9.202;2023-04-05T10:55:16;8.77;;;4.68;;
30617;SDS011;17384;51.214;9.202;2023-04-05T10:57:43;10.80;;;4.93;;
30617;SDS011;17384;51.214;9.202;2023-04-05T11:00:10;7.65;;;4.38;;
30617;SDS011;17384;51.214;9.202;2023-04-05T11:02:37;8.50;;;5.00;;
30617;SDS011;17384;51.214;9.202;2023-04-05T11:05:03;8.95;;;4.78;;
30617;SDS011;17384;51.214;9.202;2023-04-05T11:07:42;6.93;;;4.32;;
30617;SDS011;17384;51.214;9.202;2023-04-05T11:10:15;7.25;;;4.82;;
30617;SDS011;17384;51.214;9.202;2023-04-05T11:20:51;9.75;;;4.97;;
30617;SDS011;17384;51.214;9.202;2023-04-05T11:23:22;12.00;;;4.63;;
30617;SDS011;17384;51.214;9.202;2023-04-05T11:28:22;11.18;;;4.68;;
30617;SDS011;17384;51.214;9.202;2023-04-05T11:30:55;7.88;;;5.00;;
30617;SDS011;17384;51.214;9.202;2023-04-05T11:39:30;12.40;;;4.95;;
30617;SDS011;17384;51.214;9.202;2023-04-05T11:42:04;9.45;;;5.50;;
30617;SDS011;17384;51.214;9.202;2023-04-05T11:44:41;10.18;;;4.88;;
30617;SDS011;17384;51.214;9.202;2023-04-05T11:47:08;6.75;;;4.80;;
30617;SDS011;17384;51.214;9.202;2023-04-05T11:49:35;8.88;;;4.75;;
30617;SDS011;17384;51.214;9.202;2023-04-05T11:52:08;7.20;;;4.78;;
30617;SDS011;17384;51.214;9.202;2023-04-05T11:54:45;7.05;;;5.30;;
30617;SDS011;17384;51.214;9.202;2023-04-05T11:57:22;11.23;;;4.97;;
30617;SDS011;17384;51.214;9.202;2023-04-05T11:59:51;6.35;;;4.18;;
30617;SDS011;17384;51.214;9.202;2023-04-05T12:02:18;6.00;;;4.30;;
30617;SDS011;17384;51.214;9.202;2023-04-05T12:04:46;6.95;;;4.60;;
30617;SDS011;17384;51.214;9.202;2023-04-05T12:07:18;7.00;;;4.47;;
30617;SDS011;17384;51.214;9.202;2023-04-05T12:10:04;8.27;;;4.28;;
30617;SDS011;17384;51.214;9.202;2023-04-05T12:12:44;5.63;;;4.25;;
30617;SDS011;17384;51.214;9.202;2023-04-05T12:15:15;6.05;;;4.35;;
30617;SDS011;17384;51.214;9.202;2023-04-05T12:17:47;6.13;;;4.28;;
30617;SDS011;17384;51.214;9.202;2023-04-05T12:20:18;5.07;;;4.50;;
30617;SDS011;17384;51.214;9.202;2023-04-05T12:22:46;7.28;;;4.60;;
30617;SDS011;17384;51.214;9.202;2023-04-05T12:25:13;8.30;;;4.43;;
30617;SDS011;17384;51.214;9.202;2023-04-05T12:27:40;5.22;;;4.30;;
30617;SDS011;17384;51.214;9.202;2023-04-05T12:30:10;9.02;;;4.72;;
30617;SDS011;17384;51.214;9.202;2023-04-05T12:35:22;8.27;;;4.47;;
30617;SDS011;17384;51.214;9.202;2023-04-05T12:37:57;9.18;;;4.22;;
30617;SDS011;17384;51.214;9.202;2023-04-05T12:40:23;5.28;;;3.78;;
30617;SDS011;17384;51.214;9.202;2023-04-05T12:42:50;7.75;;;4.32;;
30617;SDS011;17384;51.214;9.202;2023-04-05T12:45:16;5.50;;;3.92;;
30617;SDS011;17384;51.214;9.202;2023-04-05T12:47:54;6.43;;;4.22;;
30617;SDS011;17384;51.214;9.202;2023-04-05T12:50:28;5.82;;;4.15;;
30617;SDS011;17384;51.214;9.202;2023-04-05T12:53:43;8.75;;;4.25;;
30617;SDS011;17384;51.214;9.202;2023-04-05T12:55:51;5.68;;;4.57;;
30617;SDS011;17384;51.214;9.202;2023-04-05T12:58:19;8.77;;;4.53;;
30617;SDS011;17384;51.214;9.202;2023-04-05T13:00:46;10.05;;;4.40;;
30617;SDS011;17384;51.214;9.202;2023-04-05T13:03:19;7.95;;;4.43;;
30617;SDS011;17384;51.214;9.202;2023-04-05T13:05:46;6.65;;;4.13;;
30617;SDS011;17384;51.214;9.202;2023-04-05T13:08:15;6.40;;;4.60;;
30617;SDS011;17384;51.214;9.202;2023-04-05T13:10:44;7.93;;;4.65;;
30617;SDS011;17384;51.214;9.202;2023-04-05T13:13:18;10.48;;;4.45;;
30617;SDS011;17384;51.214;9.202;2023-04-05T13:15:46;6.57;;;4.45;;
30617;SDS011;17384;51.214;9.202;2023-04-05T13:18:12;7.65;;;4.53;;
30617;SDS011;17384;51.214;9.202;2023-04-05T13:20:39;7.55;;;4.45;;
30617;SDS011;17384;51.214;9.202;2023-04-05T13:23:06;7.38;;;4.20;;
30617;SDS011;17384;51.214;9.202;2023-04-05T13:25:38;10.30;;;5.40;;
30617;SDS011;17384;51.214;9.202;2023-04-05T13:28:05;7.05;;;5.03;;
30617;SDS011;17384;51.214;9.202;2023-04-05T13:30:31;4.88;;;4.10;;
30617;SDS011;17384;51.214;9.202;2023-04-05T13:32:56;7.97;;;5.03;;
30617;SDS011;17384;51.214;9.202;2023-04-05T13:35:22;8.48;;;4.75;;
30617;SDS011;17384;51.214;9.202;2023-04-05T13:37:47;6.13;;;4.40;;
30617;SDS011;17384;51.214;9.202;2023-04-05T13:40:13;7.28;;;4.65;;
30617;SDS011;17384;51.214;9.202;2023-04-05T13:42:40;7.30;;;4.57;;
30617;SDS011;17384;51.214;9.202;2023-04-05T13:45:06;8.23;;;4.63;;
30617;SDS011;17384;51.214;9.202;2023-04-05T13:47:32;16.05;;;7.93;;
30617;SDS011;17384;51.214;9.202;2023-04-05T13:49:57;6.20;;;4.57;;
30617;SDS011;17384;51.214;9.202;2023-04-05T13:52:23;13.45;;;7.05;;
30617;SDS011;17384;51.214;9.202;2023-04-05T13:54:49;7.40;;;4.60;;
30617;SDS011;17384;51.214;9.202;2023-04-05T13:57:15;5.88;;;4.20;;
30617;SDS011;17384;51.214;9.202;2023-04-05T13:59:40;10.48;;;5.13;;
30617;SDS011;17384;51.214;9.202;2023-04-05T14:02:06;8.55;;;4.28;;
30617;SDS011;17384;51.214;9.202;2023-04-05T14:04:32;8.13;;;4.65;;
30617;SDS011;17384;51.214;9.202;2023-04-05T14:06:57;6.82;;;4.60;;
30617;SDS011;17384;51.214;9.202;2023-04-05T14:09:23;6.88;;;5.35;;
30617;SDS011;17384;51.214;9.202;2023-04-05T14:11:48;8.48;;;5.55;;
30617;SDS011;17384;51.214;9.202;2023-04-05T14:14:14;7.68;;;4.82;;
30617;SDS011;17384;51.214;9.202;2023-04-05T14:16:39;8.85;;;5.38;;
30617;SDS011;17384;51.214;9.202;2023-04-05T14:19:05;14.20;;;5.07;;
30617;SDS011;17384;51.214;9.202;2023-04-05T14:21:30;5.78;;;4.20;;
30617;SDS011;17384;51.214;9.202;2023-04-05T14:23:57;7.80;;;5.13;;
30617;SDS011;17384;51.214;9.202;2023-04-05T14:26:23;6.65;;;4.88;;
30617;SDS011;17384;51.214;9.202;2023-04-05T14:28:50;7.50;;;5.03;;
30617;SDS011;17384;51.214;9.202;2023-04-05T14:31:16;11.13;;;4.47;;
30617;SDS011;17384;51.214;9.202;2023-04-05T14:33:41;10.40;;;4.53;;
30617;SDS011;17384;51.214;9.202;2023-04-05T14:36:07;7.50;;;4.85;;
30617;SDS011;17384;51.214;9.202;2023-04-05T14:38:32;6.70;;;4.57;;
30617;SDS011;17384;51.214;9.202;2023-04-05T14:40:58;9.32;;;5.60;;
30617;SDS011;17384;51.214;9.202;2023-04-05T14:43:23;10.93;;;4.88;;
30617;SDS011;17384;51.214;9.202;2023-04-05T14:45:51;9.07;;;4.53;;
30617;SDS011;17384;51.214;9.202;2023-04-05T14:48:17;8.75;;;4.90;;
30617;SDS011;17384;51.214;9.202;2023-04-05T14:50:42;11.68;;;6.68;;
30617;SDS011;17384;51.214;9.202;2023-04-05T14:53:08;9.23;;;5.88;;
30617;SDS011;17384;51.214;9.202;2023-04-05T14:55:34;7.82;;;4.63;;
30617;SDS011;17384;51.214;9.202;2023-04-05T14:58:00;11.63;;;6.28;;
30617;SDS011;17384;51.214;9.202;2023-04-05T15:00:25;10.35;;;5.53;;
30617;SDS011;17384;51.214;9.202;2023-04-05T15:02:50;10.80;;;6.68;;
30617;SDS011;17384;51.214;9.202;2023-04-05T15:05:18;15.88;;;7.38;;
30617;SDS011;17384;51.214;9.202;2023-04-05T15:07:43;8.23;;;5.25;;
30617;SDS011;17384;51.214;9.202;2023-04-05T15:10:09;7.18;;;4.00;;
30617;SDS011;17384;51.214;9.202;2023-04-05T15:12:35;9.00;;;4.78;;
30617;SDS011;17384;51.214;9.202;2023-04-05T15:15:00;8.68;;;5.93;;
30617;SDS011;17384;51.214;9.202;2023-04-05T15:17:26;4.75;;;3.83;;
30617;SDS011;17384;51.214;9.202;2023-04-05T15:19:52;7.50;;;5.00;;
30617;SDS011;17384;51.214;9.202;2023-04-05T15:22:17;9.70;;;5.88;;
30617;SDS011;17384;51.214;9.202;2023-04-05T15:24:44;12.18;;;4.78;;
30617;SDS011;17384;51.214;9.202;2023-04-05T15:27:10;6.80;;;4.10;;
30617;SDS011;17384;51.214;9.202;2023-04-05T15:29:36;5.43;;;3.88;;
30617;SDS011;17384;51.214;9.202;2023-04-05T15:32:01;13.23;;;7.90;;
30617;SDS011;17384;51.214;9.202;2023-04-05T15:34:27;9.63;;;4.68;;
30617;SDS011;17384;51.214;9.202;2023-04-05T15:36:55;8.05;;;4.40;;
30617;SDS011;17384;51.214;9.202;2023-04-05T15:39:21;8.38;;;5.50;;